Date,TemperatureHighF,TemperatureAvgF,TemperatureLowF,DewpointHighF,DewpointAvgF,DewpointLowF,HumidityHigh,HumidityAvg,HumidityLow,PressureMaxIn,PressureMinIn,WindSpeedMaxMPH,WindSpeedAvgMPH,GustSpeedMaxMPH,PrecipitationSumIn
2013-1-1,37,32,20,27,17,5,71,56,43,29.95,29.72,28,9,0,0.00
2013-1-2,28,20,10,16,8,-5,68,59,51,30.12,29.91,21,8,0,0.00
2013-1-3,25,15,6,10,-1,-6,63,50,29,30.15,30.02,19,6,0,0.00
2013-1-4,38,31,21,24,20,10,76,66,54,30.01,29.82,21,7,0,0.00
2013-1-5,41,35,27,26,21,17,74,59,41,30.29,29.86,19,6,0,0.00
2013-1-6,43,35,27,29,26,19,87,71,56,30.24,29.96,13,4,0,0.00
2013-1-7,37,34,30,30,28,25,86,77,62,30.43,29.98,15,4,0,0.00
2013-1-8,47,39,32,30,29,28,91,68,49,30.40,30.28,19,7,0,0.00
2013-1-9,45,38,29,36,30,25,86,73,52,30.43,30.01,20,4,0,0.00
2013-1-10,46,42,35,29,26,23,67,53,44,30.56,30.04,26,12,0,0.00
2013-1-11,40,35,30,38,29,24,94,79,68,30.54,30.27,12,3,0,0.10
2013-1-12,45,42,39,42,41,38,97,93,88,30.26,30.15,11,3,0,0.12
2013-1-13,52,47,43,50,46,42,98,96,92,30.18,30.01,10,3,0,0.01
2013-1-14,62,53,42,53,43,27,94,72,43,30.26,29.87,17,7,0,0.01
2013-1-15,42,39,35,28,26,24,67,61,56,30.34,30.24,8,3,0,0.00
2013-1-16,35,33,30,32,30,23,97,89,62,30.27,29.84,11,3,0,0.08
2013-1-17,42,35,29,32,27,12,96,75,48,30.12,29.85,14,6,0,0.19
2013-1-18,29,22,17,12,1,-6,49,40,29,30.48,30.09,19,8,0,0.19
2013-1-19,49,38,24,34,23,7,76,56,38,30.41,29.91,25,8,0,0.00
2013-1-20,54,42,29,35,26,11,73,55,32,29.93,29.55,26,12,0,0.00
2013-1-21,29,25,22,21,10,3,89,54,39,30.12,29.82,28,6,0,0.00
2013-1-22,24,21,14,21,10,0,91,64,39,30.09,29.77,20,8,0,0.00
2013-1-23,15,11,7,3,-9,-14,63,41,27,30.16,30.08,23,9,0,0.00
2013-1-24,18,11,3,-9,-11,-14,51,38,26,30.22,30.07,25,12,0,0.00
2013-1-25,24,16,9,10,-7,-11,70,36,23,30.30,30.10,23,8,0,0.00
2013-1-26,23,18,12,12,3,-9,85,57,30,30.24,30.03,26,8,0,0.00
2013-1-27,30,21,14,4,0,-3,63,43,27,30.49,30.24,19,9,0,0.00
2013-1-28,30,25,19,29,12,-1,95,61,33,30.47,30.05,7,2,0,0.00
2013-1-29,35,30,26,33,28,24,95,90,84,30.22,30.05,6,2,0,0.08
2013-1-30,60,49,35,57,48,34,97,94,86,30.18,29.50,21,7,0,0.04
2013-1-31,61,48,31,59,37,17,95,69,37,29.60,28.99,31,17,0,0.51